sensor_id;sensor_type;location;lat;lon;timestamp;P1;durP1;ratioP1;P2;durP2;ratioP2
75603;SDS011;64187;51.010;13.792;2022-10-30T00:01:28;35.85;;;17.25;;
75603;SDS011;64187;51.010;13.792;2022-10-30T00:06:27;30.80;;;17.23;;
75603;SDS011;64187;51.010;13.792;2022-10-30T00:11:25;30.13;;;16.88;;
75603;SDS011;64187;51.010;13.792;2022-10-30T00:16:27;32.20;;;16.83;;
75603;SDS011;64187;51.010;13.792;2022-10-30T00:21:26;35.88;;;17.23;;
75603;SDS011;64187;51.010;13.792;2022-10-30T00:26:25;31.73;;;16.77;;
75603;SDS011;64187;51.010;13.792;2022-10-30T00:31:25;31.85;;;17.70;;
75603;SDS011;64187;51.010;13.792;2022-10-30T00:36:25;31.77;;;17.55;;
75603;SDS011;64187;51.010;13.792;2022-10-30T00:41:24;29.75;;;16.27;;
75603;SDS011;64187;51.010;13.792;2022-10-30T00:51:30;30.13;;;15.75;;
75603;SDS011;64187;51.010;13.792;2022-10-30T00:56:30;34.10;;;16.17;;
75603;SDS011;64187;51.010;13.792;2022-10-30T01:01:31;31.13;;;15.55;;
75603;SDS011;64187;51.010;13.792;2022-10-30T01:06:35;31.88;;;16.15;;
75603;SDS011;64187;51.010;13.792;2022-10-30T01:11:37;28.88;;;16.17;;
75603;SDS011;64187;51.010;13.792;2022-10-30T01:38:31;31.38;;;16.30;;
75603;SDS011;64187;51.010;13.792;2022-10-30T01:43:35;32.80;;;15.77;;
75603;SDS011;64187;51.010;13.792;2022-10-30T01:48:51;28.88;;;15.98;;
75603;SDS011;64187;51.010;13.792;2022-10-30T01:59:45;26.40;;;14.85;;
75603;SDS011;64187;51.010;13.792;2022-10-30T02:04:49;25.35;;;14.60;;
75603;SDS011;64187;51.010;13.792;2022-10-30T02:09:49;27.40;;;15.93;;
75603;SDS011;64187;51.010;13.792;2022-10-30T02:14:52;25.65;;;14.50;;
75603;SDS011;64187;51.010;13.792;2022-10-30T02:19:54;28.23;;;15.48;;
75603;SDS011;64187;51.010;13.792;2022-10-30T02:24:54;26.52;;;15.13;;
75603;SDS011;64187;51.010;13.792;2022-10-30T02:35:20;33.50;;;16.10;;
75603;SDS011;64187;51.010;13.792;2022-10-30T02:40:20;26.05;;;14.85;;
75603;SDS011;64187;51.010;13.792;2022-10-30T02:45:19;27.15;;;15.27;;
75603;SDS011;64187;51.010;13.792;2022-10-30T02:50:18;29.85;;;15.50;;
75603;SDS011;64187;51.010;13.792;2022-10-30T02:55:18;26.08;;;15.35;;
75603;SDS011;64187;51.010;13.792;2022-10-30T03:00:18;26.88;;;14.02;;
75603;SDS011;64187;51.010;13.792;2022-10-30T03:05:18;22.90;;;13.25;;
75603;SDS011;64187;51.010;13.792;2022-10-30T03:10:17;23.60;;;14.27;;
75603;SDS011;64187;51.010;13.792;2022-10-30T03:15:16;26.17;;;15.65;;
75603;SDS011;64187;51.010;13.792;2022-10-30T03:20:15;26.10;;;13.23;;
75603;SDS011;64187;51.010;13.792;2022-10-30T03:25:13;22.38;;;13.50;;
75603;SDS011;64187;51.010;13.792;2022-10-30T03:30:12;24.63;;;14.60;;
75603;SDS011;64187;51.010;13.792;2022-10-30T03:35:12;24.55;;;14.15;;
75603;SDS011;64187;51.010;13.792;2022-10-30T03:40:10;22.75;;;14.25;;
75603;SDS011;64187;51.010;13.792;2022-10-30T03:45:10;24.65;;;15.23;;
75603;SDS011;64187;51.010;13.792;2022-10-30T03:50:09;21.42;;;13.00;;
75603;SDS011;64187;51.010;13.792;2022-10-30T03:55:08;29.25;;;14.20;;
75603;SDS011;64187;51.010;13.792;2022-10-30T04:00:10;24.15;;;13.40;;
75603;SDS011;64187;51.010;13.792;2022-10-30T04:05:12;27.55;;;14.15;;
75603;SDS011;64187;51.010;13.792;2022-10-30T04:10:13;23.13;;;13.30;;
75603;SDS011;64187;51.010;13.792;2022-10-30T04:15:21;24.92;;;13.02;;
75603;SDS011;64187;51.010;13.792;2022-10-30T04:20:21;23.60;;;12.98;;
75603;SDS011;64187;51.010;13.792;2022-10-30T04:25:22;21.42;;;12.82;;
75603;SDS011;64187;51.010;13.792;2022-10-30T04:30:22;21.92;;;12.35;;
75603;SDS011;64187;51.010;13.792;2022-10-30T04:35:23;25.27;;;13.75;;
75603;SDS011;64187;51.010;13.792;2022-10-30T04:40:25;22.35;;;12.88;;
75603;SDS011;64187;51.010;13.792;2022-10-30T04:45:30;25.95;;;12.90;;
75603;SDS011;64187;51.010;13.792;2022-10-30T04:50:29;23.05;;;14.68;;
75603;SDS011;64187;51.010;13.792;2022-10-30T04:55:30;22.95;;;12.70;;
75603;SDS011;64187;51.010;13.792;2022-10-30T05:00:30;23.75;;;16.70;;
75603;SDS011;64187;51.010;13.792;2022-10-30T05:10:38;21.02;;;12.80;;
75603;SDS011;64187;51.010;13.792;2022-10-30T05:15:37;24.35;;;13.45;;
75603;SDS011;64187;51.010;13.792;2022-10-30T05:20:37;20.40;;;12.75;;
75603;SDS011;64187;51.010;13.792;2022-10-30T05:25:36;23.80;;;12.20;;
75603;SDS011;64187;51.010;13.792;2022-10-30T05:30:37;21.50;;;12.95;;
75603;SDS011;64187;51.010;13.792;2022-10-30T05:35:44;23.35;;;12.98;;
75603;SDS011;64187;51.010;13.792;2022-10-30T05:40:44;22.65;;;13.55;;
75603;SDS011;64187;51.010;13.792;2022-10-30T05:45:47;19.45;;;12.02;;
75603;SDS011;64187;51.010;13.792;2022-10-30T05:50:48;19.55;;;11.88;;
75603;SDS011;64187;51.010;13.792;2022-10-30T05:55:55;21.17;;;12.00;;
75603;SDS011;64187;51.010;13.792;2022-10-30T06:00:58;22.38;;;12.48;;
75603;SDS011;64187;51.010;13.792;2022-10-30T06:06:10;22.38;;;12.55;;
75603;SDS011;64187;51.010;13.792;2022-10-30T06:11:09;21.13;;;14.05;;
75603;SDS011;64187;51.010;13.792;2022-10-30T06:16:11;21.75;;;13.82;;
75603;SDS011;64187;51.010;13.792;2022-10-30T06:21:36;21.23;;;13.35;;
75603;SDS011;64187;51.010;13.792;2022-10-30T06:26:55;21.08;;;13.40;;
75603;SDS011;64187;51.010;13.792;2022-10-30T06:31:54;22.98;;;12.77;;
75603;SDS011;64187;51.010;13.792;2022-10-30T06:36:57;23.20;;;15.00;;
75603;SDS011;64187;51.010;13.792;2022-10-30T06:41:57;25.67;;;13.85;;
75603;SDS011;64187;51.010;13.792;2022-10-30T06:47:14;26.90;;;14.40;;
75603;SDS011;64187;51.010;13.792;2022-10-30T06:52:16;22.83;;;13.00;;
75603;SDS011;64187;51.010;13.792;2022-10-30T06:57:23;20.55;;;12.70;;
75603;SDS011;64187;51.010;13.792;2022-10-30T07:02:41;21.08;;;12.30;;
75603;SDS011;64187;51.010;13.792;2022-10-30T07:07:43;17.67;;;11.52;;
75603;SDS011;64187;51.010;13.792;2022-10-30T07:12:41;24.65;;;14.00;;
75603;SDS011;64187;51.010;13.792;2022-10-30T07:17:53;21.08;;;12.73;;
75603;SDS011;64187;51.010;13.792;2022-10-30T07:22:55;23.23;;;13.95;;
75603;SDS011;64187;51.010;13.792;2022-10-30T07:27:54;18.85;;;12.88;;
75603;SDS011;64187;51.010;13.792;2022-10-30T07:33:17;24.23;;;14.07;;
75603;SDS011;64187;51.010;13.792;2022-10-30T07:44:07;23.77;;;13.90;;
75603;SDS011;64187;51.010;13.792;2022-10-30T07:49:19;22.25;;;13.55;;
75603;SDS011;64187;51.010;13.792;2022-10-30T07:54:27;25.05;;;14.45;;
75603;SDS011;64187;51.010;13.792;2022-10-30T07:59:29;22.02;;;13.90;;
75603;SDS011;64187;51.010;13.792;2022-10-30T08:04:46;27.00;;;14.23;;
75603;SDS011;64187;51.010;13.792;2022-10-30T08:10:05;24.30;;;14.57;;
75603;SDS011;64187;51.010;13.792;2022-10-30T08:15:05;24.27;;;14.55;;
75603;SDS011;64187;51.010;13.792;2022-10-30T08:20:06;22.85;;;13.93;;
75603;SDS011;64187;51.010;13.792;2022-10-30T08:25:06;23.40;;;14.82;;
75603;SDS011;64187;51.010;13.792;2022-10-30T08:30:07;22.58;;;15.35;;
75603;SDS011;64187;51.010;13.792;2022-10-30T08:35:06;26.77;;;14.13;;
75603;SDS011;64187;51.010;13.792;2022-10-30T08:40:05;24.35;;;15.07;;
75603;SDS011;64187;51.010;13.792;2022-10-30T08:45:13;23.00;;;13.90;;
75603;SDS011;64187;51.010;13.792;2022-10-30T08:50:38;26.25;;;14.30;;
75603;SDS011;64187;51.010;13.792;2022-10-30T08:55:38;22.58;;;13.55;;
75603;SDS011;64187;51.010;13.792;2022-10-30T09:00:45;21.08;;;13.32;;
75603;SDS011;64187;51.010;13.792;2022-10-30T09:05:44;24.55;;;14.50;;
75603;SDS011;64187;51.010;13.792;2022-10-30T09:10:52;21.85;;;13.07;;
75603;SDS011;64187;51.010;13.792;2022-10-30T09:15:52;21.77;;;12.70;;
75603;SDS011;64187;51.010;13.792;2022-10-30T09:20:53;21.42;;;12.80;;
75603;SDS011;64187;51.010;13.792;2022-10-30T09:25:55;21.60;;;13.43;;
75603;SDS011;64187;51.010;13.792;2022-10-30T09:31:12;21.13;;;13.02;;
75603;SDS011;64187;51.010;13.792;2022-10-30T09:36:11;21.60;;;12.50;;
75603;SDS011;64187;51.010;13.792;2022-10-30T09:41:21;22.80;;;14.85;;
75603;SDS011;64187;51.010;13.792;2022-10-30T09:52:05;24.42;;;14.02;;
75603;SDS011;64187;51.010;13.792;2022-10-30T09:57:33;21.55;;;13.68;;
75603;SDS011;64187;51.010;13.792;2022-10-30T10:08:11;20.60;;;12.80;;
75603;SDS011;64187;51.010;13.792;2022-10-30T10:13:45;21.77;;;12.48;;
75603;SDS011;64187;51.010;13.792;2022-10-30T10:18:59;22.77;;;14.20;;
75603;SDS011;64187;51.010;13.792;2022-10-30T10:23:59;22.35;;;13.20;;
75603;SDS011;64187;51.010;13.792;2022-10-30T10:39:45;22.77;;;12.75;;
75603;SDS011;64187;51.010;13.792;2022-10-30T10:45:05;21.75;;;13.15;;
75603;SDS011;64187;51.010;13.792;2022-10-30T10:50:31;18.67;;;12.60;;
75603;SDS011;64187;51.010;13.792;2022-10-30T10:55:34;21.10;;;12.15;;
75603;SDS011;64187;51.010;13.792;2022-10-30T11:00:35;18.73;;;12.07;;
75603;SDS011;64187;51.010;13.792;2022-10-30T11:16:17;21.75;;;12.55;;
75603;SDS011;64187;51.010;13.792;2022-10-30T11:21:28;24.30;;;13.68;;
75603;SDS011;64187;51.010;13.792;2022-10-30T11:26:31;20.15;;;13.13;;
75603;SDS011;64187;51.010;13.792;2022-10-30T11:31:37;21.58;;;14.30;;
75603;SDS011;64187;51.010;13.792;2022-10-30T11:36:40;21.65;;;13.00;;
75603;SDS011;64187;51.010;13.792;2022-10-30T11:41:39;19.00;;;12.80;;
75603;SDS011;64187;51.010;13.792;2022-10-30T11:46:38;19.25;;;12.07;;
75603;SDS011;64187;51.010;13.792;2022-10-30T11:51:37;19.83;;;13.55;;
75603;SDS011;64187;51.010;13.792;2022-10-30T11:56:37;21.02;;;13.88;;
75603;SDS011;64187;51.010;13.792;2022-10-30T12:07:07;23.60;;;15.43;;
75603;SDS011;64187;51.010;13.792;2022-10-30T12:12:10;23.30;;;14.80;;
75603;SDS011;64187;51.010;13.792;2022-10-30T12:17:17;20.45;;;13.10;;
75603;SDS011;64187;51.010;13.792;2022-10-30T12:22:26;21.85;;;12.57;;
75603;SDS011;64187;51.010;13.792;2022-10-30T12:27:30;19.30;;;13.27;;
75603;SDS011;64187;51.010;13.792;2022-10-30T12:32:42;25.88;;;14.93;;
75603;SDS011;64187;51.010;13.792;2022-10-30T12:37:47;21.05;;;12.95;;
75603;SDS011;64187;51.010;13.792;2022-10-30T12:42:53;19.20;;;12.23;;
75603;SDS011;64187;51.010;13.792;2022-10-30T12:48:06;19.92;;;12.85;;
75603;SDS011;64187;51.010;13.792;2022-10-30T12:53:31;17.38;;;11.57;;
75603;SDS011;64187;51.010;13.792;2022-10-30T13:09:08;19.15;;;12.25;;
75603;SDS011;64187;51.010;13.792;2022-10-30T13:14:18;23.08;;;15.38;;
75603;SDS011;64187;51.010;13.792;2022-10-30T13:19:19;25.23;;;14.15;;
75603;SDS011;64187;51.010;13.792;2022-10-30T13:24:32;22.17;;;14.55;;
75603;SDS011;64187;51.010;13.792;2022-10-30T13:35:21;20.20;;;13.23;;
75603;SDS011;64187;51.010;13.792;2022-10-30T13:56:11;25.92;;;13.43;;
75603;SDS011;64187;51.010;13.792;2022-10-30T14:11:18;26.35;;;13.98;;
75603;SDS011;64187;51.010;13.792;2022-10-30T14:37:13;21.45;;;14.35;;
75603;SDS011;64187;51.010;13.792;2022-10-30T14:52:29;25.65;;;14.70;;
75603;SDS011;64187;51.010;13.792;2022-10-30T14:57:52;26.80;;;15.27;;
75603;SDS011;64187;51.010;13.792;2022-10-30T15:03:08;28.23;;;15.63;;
75603;SDS011;64187;51.010;13.792;2022-10-30T15:18:21;25.98;;;15.07;;
75603;SDS011;64187;51.010;13.792;2022-10-30T15:23:28;25.95;;;15.32;;
75603;SDS011;64187;51.010;13.792;2022-10-30T15:28:30;27.58;;;15.13;;
75603;SDS011;64187;51.010;13.792;2022-10-30T15:33:31;30.67;;;16.98;;
75603;SDS011;64187;51.010;13.792;2022-10-30T15:38:32;30.02;;;16.33;;
75603;SDS011;64187;51.010;13.792;2022-10-30T15:43:33;27.67;;;16.13;;
75603;SDS011;64187;51.010;13.792;2022-10-30T15:48:36;24.48;;;15.13;;
75603;SDS011;64187;51.010;13.792;2022-10-30T15:53:48;29.77;;;17.25;;
75603;SDS011;64187;51.010;13.792;2022-10-30T15:58:52;25.55;;;16.92;;
75603;SDS011;64187;51.010;13.792;2022-10-30T16:03:54;28.77;;;16.90;;
75603;SDS011;64187;51.010;13.792;2022-10-30T16:08:53;27.13;;;17.17;;
75603;SDS011;64187;51.010;13.792;2022-10-30T16:13:52;37.78;;;18.60;;
75603;SDS011;64187;51.010;13.792;2022-10-30T16:18:51;30.35;;;18.05;;
75603;SDS011;64187;51.010;13.792;2022-10-30T16:23:59;31.67;;;19.15;;
75603;SDS011;64187;51.010;13.792;2022-10-30T16:29:08;30.88;;;18.08;;
75603;SDS011;64187;51.010;13.792;2022-10-30T16:34:27;32.92;;;19.73;;
75603;SDS011;64187;51.010;13.792;2022-10-30T16:44:34;32.17;;;18.17;;
75603;SDS011;64187;51.010;13.792;2022-10-30T16:49:33;31.42;;;18.42;;
75603;SDS011;64187;51.010;13.792;2022-10-30T16:54:37;32.97;;;19.27;;
75603;SDS011;64187;51.010;13.792;2022-10-30T16:59:43;31.88;;;20.35;;
75603;SDS011;64187;51.010;13.792;2022-10-30T17:04:45;36.88;;;19.42;;
75603;SDS011;64187;51.010;13.792;2022-10-30T17:09:53;33.03;;;19.67;;
75603;SDS011;64187;51.010;13.792;2022-10-30T17:15:01;32.60;;;21.77;;
75603;SDS011;64187;51.010;13.792;2022-10-30T17:25:15;36.22;;;19.63;;
75603;SDS011;64187;51.010;13.792;2022-10-30T17:35:32;34.97;;;20.98;;
75603;SDS011;64187;51.010;13.792;2022-10-30T17:40:31;34.80;;;20.75;;
75603;SDS011;64187;51.010;13.792;2022-10-30T17:45:30;30.27;;;18.63;;
75603;SDS011;64187;51.010;13.792;2022-10-30T17:50:28;37.85;;;23.27;;
75603;SDS011;64187;51.010;13.792;2022-10-30T17:55:28;41.08;;;20.80;;
75603;SDS011;64187;51.010;13.792;2022-10-30T18:00:29;37.50;;;21.90;;
75603;SDS011;64187;51.010;13.792;2022-10-30T18:05:28;25.23;;;14.45;;
75603;SDS011;64187;51.010;13.792;2022-10-30T18:10:28;29.42;;;18.63;;
75603;SDS011;64187;51.010;13.792;2022-10-30T18:15:32;26.77;;;16.70;;
75603;SDS011;64187;51.010;13.792;2022-10-30T18:20:33;31.00;;;20.27;;
75603;SDS011;64187;51.010;13.792;2022-10-30T18:25:33;37.15;;;22.08;;
75603;SDS011;64187;51.010;13.792;2022-10-30T18:30:34;37.00;;;20.80;;
75603;SDS011;64187;51.010;13.792;2022-10-30T18:35:37;37.70;;;21.83;;
75603;SDS011;64187;51.010;13.792;2022-10-30T18:40:37;37.70;;;21.55;;
75603;SDS011;64187;51.010;13.792;2022-10-30T18:45:36;42.85;;;23.27;;
75603;SDS011;64187;51.010;13.792;2022-10-30T18:50:38;41.40;;;22.60;;
75603;SDS011;64187;51.010;13.792;2022-10-30T18:55:38;40.83;;;22.13;;
75603;SDS011;64187;51.010;13.792;2022-10-30T19:00:38;38.63;;;21.77;;
75603;SDS011;64187;51.010;13.792;2022-10-30T19:05:57;45.40;;;24.30;;
75603;SDS011;64187;51.010;13.792;2022-10-30T19:10:56;37.78;;;23.45;;
75603;SDS011;64187;51.010;13.792;2022-10-30T19:15:55;43.03;;;24.50;;
75603;SDS011;64187;51.010;13.792;2022-10-30T19:20:58;39.00;;;22.05;;
75603;SDS011;64187;51.010;13.792;2022-10-30T19:26:12;38.10;;;20.58;;
75603;SDS011;64187;51.010;13.792;2022-10-30T19:31:12;39.08;;;23.17;;
75603;SDS011;64187;51.010;13.792;2022-10-30T19:36:29;38.53;;;22.00;;
75603;SDS011;64187;51.010;13.792;2022-10-30T19:41:31;39.70;;;21.98;;
75603;SDS011;64187;51.010;13.792;2022-10-30T19:46:30;36.30;;;20.70;;
75603;SDS011;64187;51.010;13.792;2022-10-30T19:51:28;43.72;;;23.17;;
75603;SDS011;64187;51.010;13.792;2022-10-30T19:56:27;42.05;;;25.08;;
75603;SDS011;64187;51.010;13.792;2022-10-30T20:01:26;39.95;;;22.20;;
75603;SDS011;64187;51.010;13.792;2022-10-30T20:06:25;37.05;;;22.58;;
75603;SDS011;64187;51.010;13.792;2022-10-30T20:11:24;36.80;;;21.85;;
75603;SDS011;64187;51.010;13.792;2022-10-30T20:16:23;38.03;;;21.65;;
75603;SDS011;64187;51.010;13.792;2022-10-30T20:21:22;41.85;;;21.65;;
75603;SDS011;64187;51.010;13.792;2022-10-30T20:26:24;35.53;;;20.13;;
75603;SDS011;64187;51.010;13.792;2022-10-30T20:31:25;36.92;;;20.40;;
75603;SDS011;64187;51.010;13.792;2022-10-30T20:36:24;36.45;;;20.25;;
75603;SDS011;64187;51.010;13.792;2022-10-30T20:41:24;34.88;;;19.67;;
75603;SDS011;64187;51.010;13.792;2022-10-30T20:46:25;34.55;;;19.30;;
75603;SDS011;64187;51.010;13.792;2022-10-30T20:51:23;34.47;;;20.10;;
75603;SDS011;64187;51.010;13.792;2022-10-30T20:56:22;39.50;;;22.58;;
75603;SDS011;64187;51.010;13.792;2022-10-30T21:01:21;36.97;;;20.48;;
75603;SDS011;64187;51.010;13.792;2022-10-30T21:06:20;36.95;;;19.52;;
75603;SDS011;64187;51.010;13.792;2022-10-30T21:11:20;36.05;;;21.23;;
75603;SDS011;64187;51.010;13.792;2022-10-30T21:16:19;34.92;;;20.10;;
75603;SDS011;64187;51.010;13.792;2022-10-30T21:21:17;36.35;;;21.55;;
75603;SDS011;64187;51.010;13.792;2022-10-30T21:26:23;36.10;;;20.55;;
75603;SDS011;64187;51.010;13.792;2022-10-30T21:31:22;34.63;;;19.67;;
75603;SDS011;64187;51.010;13.792;2022-10-30T21:36:21;32.38;;;18.80;;
75603;SDS011;64187;51.010;13.792;2022-10-30T21:41:22;31.52;;;19.08;;
75603;SDS011;64187;51.010;13.792;2022-10-30T21:46:26;36.13;;;19.30;;
75603;SDS011;64187;51.010;13.792;2022-10-30T21:51:28;28.02;;;17.35;;
75603;SDS011;64187;51.010;13.792;2022-10-30T21:56:28;34.47;;;17.63;;
75603;SDS011;64187;51.010;13.792;2022-10-30T22:01:28;30.45;;;17.00;;
75603;SDS011;64187;51.010;13.792;2022-10-30T22:06:28;33.95;;;17.35;;
75603;SDS011;64187;51.010;13.792;2022-10-30T22:11:27;31.00;;;16.77;;
75603;SDS011;64187;51.010;13.792;2022-10-30T22:16:26;29.75;;;16.83;;
75603;SDS011;64187;51.010;13.792;2022-10-30T22:21:26;29.98;;;17.35;;
75603;SDS011;64187;51.010;13.792;2022-10-30T22:26:25;28.88;;;16.52;;
75603;SDS011;64187;51.010;13.792;2022-10-30T22:31:25;31.17;;;19.63;;
75603;SDS011;64187;51.010;13.792;2022-10-30T22:36:27;31.77;;;17.55;;
75603;SDS011;64187;51.010;13.792;2022-10-30T22:41:28;30.83;;;17.73;;
75603;SDS011;64187;51.010;13.792;2022-10-30T22:46:35;29.60;;;16.35;;
75603;SDS011;64187;51.010;13.792;2022-10-30T22:51:35;29.58;;;15.75;;
75603;SDS011;64187;51.010;13.792;2022-10-30T22:56:36;27.63;;;16.08;;
75603;SDS011;64187;51.010;13.792;2022-10-30T23:01:35;31.67;;;16.30;;
75603;SDS011;64187;51.010;13.792;2022-10-30T23:06:35;31.60;;;15.57;;
75603;SDS011;64187;51.010;13.792;2022-10-30T23:11:34;26.13;;;15.32;;
75603;SDS011;64187;51.010;13.792;2022-10-30T23:16:33;28.15;;;16.35;;
75603;SDS011;64187;51.010;13.792;2022-10-30T23:21:32;30.60;;;16.80;;
75603;SDS011;64187;51.010;13.792;2022-10-30T23:26:32;27.80;;;15.25;;
75603;SDS011;64187;51.010;13.792;2022-10-30T23:31:34;27.15;;;14.65;;
75603;SDS011;64187;51.010;13.792;2022-10-30T23:36:35;24.92;;;14.18;;
75603;SDS011;64187;51.010;13.792;2022-10-30T23:41:34;24.60;;;13.25;;
75603;SDS011;64187;51.010;13.792;2022-10-30T23:46:33;23.38;;;12.43;;
75603;SDS011;64187;51.010;13.792;2022-10-30T23:51:33;22.27;;;12.88;;
75603;SDS011;64187;51.010;13.792;2022-10-30T23:56:31;23.08;;;13.05;;
